createdAt,value
2023-05-21T00:00:05.614Z,23.75
2023-05-21T00:00:15.615Z,23.76
2023-05-21T00:00:25.667Z,23.76
2023-05-21T00:00:35.669Z,23.76
2023-05-21T00:00:45.675Z,23.76
2023-05-21T00:00:55.694Z,23.76
2023-05-21T00:01:05.702Z,23.76
2023-05-21T00:01:15.704Z,23.76
2023-05-21T00:01:25.810Z,23.76
2023-05-21T00:01:35.800Z,23.75
2023-05-21T00:01:45.809Z,23.76
2023-05-21T00:01:55.844Z,23.76
2023-05-21T00:02:05.850Z,23.76
2023-05-21T00:02:15.860Z,23.76
2023-05-21T00:02:25.912Z,23.76
2023-05-21T00:02:36.107Z,23.76
2023-05-21T00:02:46.084Z,23.76
2023-05-21T00:02:56.431Z,23.76
2023-05-21T00:03:06.555Z,23.77
2023-05-21T00:03:16.735Z,23.77
2023-05-21T00:03:26.908Z,23.77
2023-05-21T00:03:36.877Z,23.77
2023-05-21T00:03:47.157Z,23.76
2023-05-21T00:03:57.402Z,23.76
2023-05-21T00:04:07.313Z,23.76
2023-05-21T00:04:17.310Z,23.76
2023-05-21T00:04:27.314Z,23.76
2023-05-21T00:04:37.318Z,23.76
2023-05-21T00:04:47.323Z,23.76
2023-05-21T00:04:57.320Z,23.75
2023-05-21T00:05:07.335Z,23.76
2023-05-21T00:05:17.339Z,23.76
2023-05-21T00:05:27.479Z,23.75
2023-05-21T00:05:37.989Z,23.76
2023-05-21T00:05:47.942Z,23.75
2023-05-21T00:05:58.002Z,23.75
2023-05-21T00:06:08.292Z,23.76
2023-05-21T00:06:18.333Z,23.76
2023-05-21T00:06:28.502Z,23.75
2023-05-21T00:06:38.408Z,23.76
2023-05-21T00:06:48.466Z,23.76
2023-05-21T00:06:58.465Z,23.76
2023-05-21T00:07:08.472Z,23.76
2023-05-21T00:07:18.481Z,23.76
2023-05-21T00:07:28.492Z,23.76
2023-05-21T00:07:38.485Z,23.77
2023-05-21T00:07:48.493Z,23.77
2023-05-21T00:07:58.517Z,23.77
2023-05-21T00:08:08.523Z,23.77
2023-05-21T00:08:18.525Z,23.77
2023-05-21T00:08:28.672Z,23.78
2023-05-21T00:08:38.690Z,23.78
2023-05-21T00:08:48.682Z,23.78
2023-05-21T00:08:58.955Z,23.78
2023-05-21T00:09:08.973Z,23.77
2023-05-21T00:09:19.001Z,23.77
2023-05-21T00:09:29.389Z,23.76
2023-05-21T00:09:39.393Z,23.77
2023-05-21T00:09:49.535Z,23.76
2023-05-21T00:09:59.804Z,23.75
2023-05-21T00:10:09.806Z,23.75
2023-05-21T00:10:19.802Z,23.74
2023-05-21T00:10:29.812Z,23.75
2023-05-21T00:10:39.824Z,23.74
2023-05-21T00:10:49.833Z,23.73
2023-05-21T00:10:59.833Z,23.73
2023-05-21T00:11:09.963Z,23.73
2023-05-21T00:11:19.963Z,23.74
2023-05-21T00:11:29.964Z,23.73
2023-05-21T00:11:40.234Z,23.73
2023-05-21T00:11:50.356Z,23.73
2023-05-21T00:12:00.367Z,23.72
2023-05-21T00:12:10.619Z,23.73
2023-05-21T00:12:20.629Z,23.72
2023-05-21T00:12:30.643Z,23.72
2023-05-21T00:12:40.654Z,23.72
2023-05-21T00:12:50.667Z,23.72
2023-05-21T00:13:00.675Z,23.71
2023-05-21T00:13:10.670Z,23.71
2023-05-21T00:13:20.675Z,23.71
2023-05-21T00:13:30.692Z,23.71
2023-05-21T00:13:40.749Z,23.70
2023-05-21T00:13:50.767Z,23.70
2023-05-21T00:14:00.768Z,23.69
2023-05-21T00:14:10.895Z,23.69
2023-05-21T00:14:20.891Z,23.69
2023-05-21T00:14:31.048Z,23.69
2023-05-21T00:14:41.032Z,23.69
2023-05-21T00:14:51.152Z,23.68
2023-05-21T00:15:01.160Z,23.69
2023-05-21T00:15:11.295Z,23.69
2023-05-21T00:15:21.307Z,23.69
2023-05-21T00:15:31.567Z,23.68
2023-05-21T00:15:41.571Z,23.68
2023-05-21T00:15:51.717Z,23.68
2023-05-21T00:16:02.028Z,23.68
2023-05-21T00:16:12.066Z,23.68
2023-05-21T00:16:22.119Z,23.67
2023-05-21T00:16:32.170Z,23.67
2023-05-21T00:16:42.209Z,23.67
2023-05-21T00:16:52.517Z,23.66
2023-05-21T00:17:02.285Z,23.65
2023-05-21T00:17:12.275Z,23.66
2023-05-21T00:17:22.285Z,23.65
2023-05-21T00:17:32.346Z,23.65
2023-05-21T00:17:42.360Z,23.65
2023-05-21T00:17:52.436Z,23.64
2023-05-21T00:18:02.491Z,23.64
2023-05-21T00:18:12.592Z,23.63
2023-05-21T00:18:22.731Z,23.63
2023-05-21T00:18:32.734Z,23.63
2023-05-21T00:18:42.777Z,23.62
2023-05-21T00:18:52.841Z,23.62
2023-05-21T00:19:02.946Z,23.62
2023-05-21T00:19:13.021Z,23.62
2023-05-21T00:19:23.051Z,23.61
2023-05-21T00:19:33.074Z,23.62
2023-05-21T00:19:43.073Z,23.61
2023-05-21T00:19:53.078Z,23.61
2023-05-21T00:20:03.452Z,23.61
2023-05-21T00:20:13.458Z,23.60
2023-05-21T00:20:23.478Z,23.60
2023-05-21T00:20:33.476Z,23.60
2023-05-21T00:20:43.473Z,23.60
2023-05-21T00:20:53.482Z,23.60
2023-05-21T00:21:03.473Z,23.59
2023-05-21T00:21:13.485Z,23.60
2023-05-21T00:21:23.523Z,23.60
2023-05-21T00:21:33.527Z,23.59
2023-05-21T00:21:43.560Z,23.59
2023-05-21T00:21:53.596Z,23.58
2023-05-21T00:22:03.620Z,23.58
2023-05-21T00:22:13.646Z,23.57
2023-05-21T00:22:23.657Z,23.58
2023-05-21T00:22:33.670Z,23.58
2023-05-21T00:22:43.777Z,23.57
2023-05-21T00:22:54.039Z,23.57
2023-05-21T00:23:04.110Z,23.57
2023-05-21T00:23:14.125Z,23.56
2023-05-21T00:23:24.505Z,23.56
2023-05-21T00:23:34.553Z,23.56
2023-05-21T00:23:44.553Z,23.55
2023-05-21T00:23:54.550Z,23.55
2023-05-21T00:24:04.679Z,23.55
2023-05-21T00:24:14.702Z,23.54
2023-05-21T00:24:24.818Z,23.54
2023-05-21T00:24:34.849Z,23.52
2023-05-21T00:24:44.924Z,23.53
2023-05-21T00:24:54.942Z,23.52
2023-05-21T00:25:05.071Z,23.53
2023-05-21T00:25:15.111Z,23.53
2023-05-21T00:25:25.124Z,23.53
2023-05-21T00:25:35.278Z,23.52
2023-05-21T00:25:45.188Z,23.53
2023-05-21T00:25:55.193Z,23.53
2023-05-21T00:26:05.196Z,23.53
2023-05-21T00:26:15.512Z,23.52
2023-05-21T00:26:25.519Z,23.52
2023-05-21T00:26:35.514Z,23.52
2023-05-21T00:26:45.511Z,23.52
2023-05-21T00:26:55.518Z,23.51
2023-05-21T00:27:05.548Z,23.51
2023-05-21T00:27:15.557Z,23.51
2023-05-21T00:27:25.544Z,23.51
2023-05-21T00:27:35.547Z,23.51
2023-05-21T00:27:45.666Z,23.50
2023-05-21T00:27:55.944Z,23.51
2023-05-21T00:28:05.958Z,23.51
2023-05-21T00:28:15.954Z,23.50
2023-05-21T00:28:26.342Z,23.50
2023-05-21T00:28:36.355Z,23.49
2023-05-21T00:28:46.361Z,23.50
2023-05-21T00:28:56.362Z,23.49
2023-05-21T00:29:06.382Z,23.50
2023-05-21T00:29:16.394Z,23.49
2023-05-21T00:29:26.384Z,23.49
2023-05-21T00:29:36.432Z,23.48
2023-05-21T00:29:46.496Z,23.48
2023-05-21T00:29:56.496Z,23.47
2023-05-21T00:30:06.765Z,23.47
2023-05-21T00:30:16.771Z,23.47
2023-05-21T00:30:26.783Z,23.47
2023-05-21T00:30:36.786Z,23.47
2023-05-21T00:30:46.808Z,23.46
2023-05-21T00:30:56.825Z,23.47
2023-05-21T00:31:06.819Z,23.46
2023-05-21T00:31:16.865Z,23.46
2023-05-21T00:31:26.909Z,23.46
2023-05-21T00:31:36.976Z,23.47
2023-05-21T00:31:47.247Z,23.45
2023-05-21T00:31:57.307Z,23.46
2023-05-21T00:32:07.481Z,23.45
2023-05-21T00:32:17.301Z,23.45
2023-05-21T00:32:27.329Z,23.44
2023-05-21T00:32:37.353Z,23.44
2023-05-21T00:32:47.409Z,23.44
2023-05-21T00:32:57.394Z,23.44
2023-05-21T00:33:07.476Z,23.44
2023-05-21T00:33:17.531Z,23.44
2023-05-21T00:33:27.768Z,23.43
2023-05-21T00:33:37.780Z,23.43
2023-05-21T00:33:47.772Z,23.43
2023-05-21T00:33:57.842Z,23.42
2023-05-21T00:34:07.874Z,23.42
2023-05-21T00:34:17.870Z,23.41
2023-05-21T00:34:27.873Z,23.41
2023-05-21T00:34:37.890Z,23.42
2023-05-21T00:34:48.006Z,23.41
2023-05-21T00:34:58.004Z,23.41
2023-05-21T00:35:08.274Z,23.41
2023-05-21T00:35:18.261Z,23.40
2023-05-21T00:35:28.273Z,23.41
2023-05-21T00:35:38.320Z,23.40
2023-05-21T00:35:48.376Z,23.40
2023-05-21T00:35:58.375Z,23.39
2023-05-21T00:36:08.377Z,23.40
2023-05-21T00:36:18.396Z,23.39
2023-05-21T00:36:28.426Z,23.39
2023-05-21T00:36:38.441Z,23.39
2023-05-21T00:36:48.455Z,23.39
2023-05-21T00:36:58.463Z,23.39
2023-05-21T00:37:08.472Z,23.39
2023-05-21T00:37:18.476Z,23.38
2023-05-21T00:37:28.497Z,23.37
2023-05-21T00:37:38.506Z,23.38
2023-05-21T00:37:48.517Z,23.38
2023-05-21T00:37:58.516Z,23.37
2023-05-21T00:38:08.550Z,23.37
2023-05-21T00:38:18.605Z,23.37
2023-05-21T00:38:28.604Z,23.36
2023-05-21T00:38:38.631Z,23.36
2023-05-21T00:38:48.632Z,23.36
2023-05-21T00:38:58.634Z,23.36
2023-05-21T00:39:09.054Z,23.36
2023-05-21T00:39:19.062Z,23.35
2023-05-21T00:39:29.180Z,23.35
2023-05-21T00:39:39.462Z,23.35
2023-05-21T00:39:49.462Z,23.35
2023-05-21T00:39:59.473Z,23.35
2023-05-21T00:40:09.515Z,23.34
2023-05-21T00:40:19.530Z,23.34
2023-05-21T00:40:29.529Z,23.33
2023-05-21T00:40:39.518Z,23.33
2023-05-21T00:40:49.535Z,23.33
2023-05-21T00:40:59.536Z,23.33
2023-05-21T00:41:09.558Z,23.32
2023-05-21T00:41:19.551Z,23.32
2023-05-21T00:41:29.577Z,23.32
2023-05-21T00:41:39.569Z,23.32
2023-05-21T00:41:49.688Z,23.32
2023-05-21T00:41:59.694Z,23.33
2023-05-21T00:42:09.836Z,23.32
2023-05-21T00:42:19.819Z,23.31
2023-05-21T00:42:29.976Z,23.31
2023-05-21T00:42:39.962Z,23.31
2023-05-21T00:42:50.086Z,23.31
2023-05-21T00:43:00.358Z,23.30
2023-05-21T00:43:10.359Z,23.30
2023-05-21T00:43:20.369Z,23.31
2023-05-21T00:43:30.380Z,23.30
2023-05-21T00:43:40.397Z,23.30
2023-05-21T00:43:50.406Z,23.30
2023-05-21T00:44:00.439Z,23.29
2023-05-21T00:44:10.447Z,23.29
2023-05-21T00:44:20.448Z,23.29
2023-05-21T00:44:30.589Z,23.29
2023-05-21T00:44:40.884Z,23.29
2023-05-21T00:44:50.900Z,23.28
2023-05-21T00:45:00.924Z,23.28
2023-05-21T00:45:10.951Z,23.28
2023-05-21T00:45:20.962Z,23.28
2023-05-21T00:45:31.011Z,23.27
2023-05-21T00:45:41.080Z,23.27
2023-05-21T00:45:51.123Z,23.27
2023-05-21T00:46:01.137Z,23.27
2023-05-21T00:46:11.268Z,23.27
2023-05-21T00:46:21.617Z,23.27
2023-05-21T00:46:31.668Z,23.26
2023-05-21T00:46:41.725Z,23.26
2023-05-21T00:46:51.987Z,23.25
2023-05-21T00:47:01.996Z,23.26
2023-05-21T00:47:12.124Z,23.26
2023-05-21T00:47:22.429Z,23.25
2023-05-21T00:47:32.445Z,23.25
2023-05-21T00:47:42.573Z,23.25
2023-05-21T00:47:52.535Z,23.24
2023-05-21T00:48:02.610Z,23.23
2023-05-21T00:48:12.650Z,23.24
2023-05-21T00:48:22.658Z,23.24
2023-05-21T00:48:32.697Z,23.24
2023-05-21T00:48:42.718Z,23.23
2023-05-21T00:48:52.717Z,23.23
2023-05-21T00:49:02.730Z,23.23
2023-05-21T00:49:12.742Z,23.23
2023-05-21T00:49:22.739Z,23.23
2023-05-21T00:49:32.857Z,23.23
2023-05-21T00:49:42.865Z,23.22
2023-05-21T00:49:52.875Z,23.22
2023-05-21T00:50:02.865Z,23.22
2023-05-21T00:50:13.123Z,23.22
2023-05-21T00:50:23.160Z,23.22
2023-05-21T00:50:33.148Z,23.22
2023-05-21T00:50:43.160Z,23.21
2023-05-21T00:50:53.169Z,23.21
2023-05-21T00:51:03.161Z,23.21
2023-05-21T00:51:13.280Z,23.21
2023-05-21T00:51:23.304Z,23.21
2023-05-21T00:51:33.302Z,23.20
2023-05-21T00:51:43.302Z,23.21
2023-05-21T00:51:53.554Z,23.20
2023-05-21T00:52:03.555Z,23.20
2023-05-21T00:52:13.688Z,23.20
2023-05-21T00:52:23.958Z,23.20
2023-05-21T00:52:34.070Z,23.20
2023-05-21T00:52:44.084Z,23.20
2023-05-21T00:52:54.345Z,23.20
2023-05-21T00:53:04.349Z,23.20
2023-05-21T00:53:14.348Z,23.20
2023-05-21T00:53:24.358Z,23.19
2023-05-21T00:53:34.367Z,23.19
2023-05-21T00:53:44.402Z,23.19
2023-05-21T00:53:54.411Z,23.19
2023-05-21T00:54:04.428Z,23.18
2023-05-21T00:54:14.427Z,23.19
2023-05-21T00:54:24.435Z,23.18
2023-05-21T00:54:34.809Z,23.18
2023-05-21T00:54:44.811Z,23.17
2023-05-21T00:54:54.808Z,23.17
2023-05-21T00:55:04.826Z,23.17
2023-05-21T00:55:14.854Z,23.17
2023-05-21T00:55:24.849Z,23.17
2023-05-21T00:55:35.055Z,23.16
2023-05-21T00:55:44.916Z,23.16
2023-05-21T00:55:54.916Z,23.16
2023-05-21T00:56:04.914Z,23.16
2023-05-21T00:56:15.293Z,23.16
2023-05-21T00:56:25.306Z,23.15
2023-05-21T00:56:35.312Z,23.16
2023-05-21T00:56:45.312Z,23.15
2023-05-21T00:56:55.438Z,23.15
2023-05-21T00:57:05.439Z,23.15
2023-05-21T00:57:15.445Z,23.15
2023-05-21T00:57:25.464Z,23.14
2023-05-21T00:57:35.478Z,23.15
2023-05-21T00:57:45.489Z,23.14
2023-05-21T00:57:55.741Z,23.14
2023-05-21T00:58:05.746Z,23.14
2023-05-21T00:58:15.807Z,23.14
2023-05-21T00:58:25.795Z,23.14
2023-05-21T00:58:35.926Z,23.14
2023-05-21T00:58:45.942Z,23.13
2023-05-21T00:58:56.060Z,23.13
2023-05-21T00:59:06.062Z,23.13
2023-05-21T00:59:16.066Z,23.12
2023-05-21T00:59:26.084Z,23.12
2023-05-21T00:59:36.220Z,23.13
2023-05-21T00:59:46.258Z,23.11
2023-05-21T00:59:56.242Z,23.12
2023-05-21T01:00:06.250Z,23.11
2023-05-21T01:00:16.267Z,23.11
2023-05-21T01:00:26.268Z,23.11
2023-05-21T01:00:36.283Z,23.11
2023-05-21T01:00:46.294Z,23.11
2023-05-21T01:00:56.321Z,23.11
2023-05-21T01:01:06.369Z,23.11
2023-05-21T01:01:16.424Z,23.11
2023-05-21T01:01:26.445Z,23.11
2023-05-21T01:01:36.504Z,23.10
2023-05-21T01:01:46.611Z,23.10
2023-05-21T01:01:56.599Z,23.10
2023-05-21T01:02:06.609Z,23.10
2023-05-21T01:02:16.654Z,23.09
2023-05-21T01:02:26.741Z,23.09
2023-05-21T01:02:36.804Z,23.09
2023-05-21T01:02:47.054Z,23.09
2023-05-21T01:02:56.961Z,23.09
2023-05-21T01:03:07.013Z,23.09
2023-05-21T01:03:17.110Z,23.08
2023-05-21T01:03:27.164Z,23.08
2023-05-21T01:03:37.561Z,23.09
2023-05-21T01:03:47.628Z,23.08
2023-05-21T01:03:57.552Z,23.08
2023-05-21T01:04:07.798Z,23.08
2023-05-21T01:04:17.803Z,23.08
2023-05-21T01:04:27.810Z,23.08
2023-05-21T01:04:37.817Z,23.08
2023-05-21T01:04:47.837Z,23.07
2023-05-21T01:04:57.837Z,23.08
2023-05-21T01:05:07.847Z,23.07
2023-05-21T01:05:17.861Z,23.07
2023-05-21T01:05:27.870Z,23.06
2023-05-21T01:05:38.068Z,23.07
2023-05-21T01:05:47.940Z,23.06
2023-05-21T01:05:57.963Z,23.06
2023-05-21T01:06:07.968Z,23.06
2023-05-21T01:06:17.981Z,23.06
2023-05-21T01:06:27.993Z,23.06
2023-05-21T01:06:38.013Z,23.06
2023-05-21T01:06:48.007Z,23.06
2023-05-21T01:06:58.018Z,23.05
2023-05-21T01:07:08.040Z,23.06
2023-05-21T01:07:18.036Z,23.05
2023-05-21T01:07:28.062Z,23.05
2023-05-21T01:07:38.064Z,23.05
2023-05-21T01:07:48.067Z,23.05
2023-05-21T01:07:58.077Z,23.05
2023-05-21T01:08:08.151Z,23.04
2023-05-21T01:08:18.160Z,23.04
2023-05-21T01:08:28.156Z,23.03
2023-05-21T01:08:38.189Z,23.05
2023-05-21T01:08:48.189Z,23.04
2023-05-21T01:08:58.200Z,23.03
2023-05-21T01:09:08.197Z,23.04
2023-05-21T01:09:18.195Z,23.03
2023-05-21T01:09:28.205Z,23.02
2023-05-21T01:09:38.213Z,23.03
2023-05-21T01:09:48.330Z,23.02
2023-05-21T01:09:58.337Z,23.03
2023-05-21T01:10:08.358Z,23.02
2023-05-21T01:10:18.347Z,23.03
2023-05-21T01:10:28.635Z,23.03
2023-05-21T01:10:38.621Z,23.02
2023-05-21T01:10:48.744Z,23.02
2023-05-21T01:10:59.016Z,23.02
2023-05-21T01:11:09.013Z,23.01
2023-05-21T01:11:19.017Z,23.02
2023-05-21T01:11:29.043Z,23.01
2023-05-21T01:11:39.054Z,23.01
2023-05-21T01:11:49.054Z,23.02
2023-05-21T01:11:59.066Z,23.02
2023-05-21T01:12:09.091Z,23.01
2023-05-21T01:12:19.083Z,23.01
2023-05-21T01:12:29.222Z,23.01
2023-05-21T01:12:39.467Z,23.00
2023-05-21T01:12:49.460Z,23.01
2023-05-21T01:12:59.477Z,23.00
2023-05-21T01:13:09.476Z,23.00
2023-05-21T01:13:19.475Z,23.00
2023-05-21T01:13:29.629Z,23.01
2023-05-21T01:13:39.635Z,23.00
2023-05-21T01:13:49.637Z,23.00
2023-05-21T01:13:59.638Z,22.99
2023-05-21T01:14:09.637Z,23.00
2023-05-21T01:14:19.904Z,23.00
2023-05-21T01:14:30.018Z,22.99
2023-05-21T01:14:40.043Z,22.99
2023-05-21T01:14:50.351Z,23.00
2023-05-21T01:15:00.376Z,22.99
2023-05-21T01:15:10.378Z,22.99
2023-05-21T01:15:20.378Z,22.98
2023-05-21T01:15:30.503Z,22.98
2023-05-21T01:15:40.501Z,22.99
2023-05-21T01:15:50.517Z,22.99
2023-05-21T01:16:00.514Z,22.99
2023-05-21T01:16:10.516Z,22.98
2023-05-21T01:16:20.550Z,22.99
2023-05-21T01:16:30.855Z,22.98
2023-05-21T01:16:41.026Z,22.97
2023-05-21T01:16:50.975Z,22.98
2023-05-21T01:17:00.989Z,22.97
2023-05-21T01:17:11.110Z,22.98
2023-05-21T01:17:21.050Z,22.97
2023-05-21T01:17:31.060Z,22.97
2023-05-21T01:17:41.093Z,22.96
2023-05-21T01:17:51.156Z,22.97
2023-05-21T01:18:01.202Z,22.97
2023-05-21T01:18:11.244Z,22.97
2023-05-21T01:18:31.359Z,22.96
2023-05-21T01:18:41.453Z,22.97
2023-05-21T01:18:51.536Z,22.96
2023-05-21T01:19:01.531Z,22.96
2023-05-21T01:19:11.662Z,22.96
2023-05-21T01:19:21.890Z,22.96
2023-05-21T01:19:31.976Z,22.95
2023-05-21T01:19:42.029Z,22.95
2023-05-21T01:19:52.349Z,22.95
2023-05-21T01:20:02.362Z,22.95
2023-05-21T01:20:12.352Z,22.95
2023-05-21T01:20:22.349Z,22.95
2023-05-21T01:20:32.484Z,22.95
2023-05-21T01:20:42.494Z,22.95
2023-05-21T01:20:52.564Z,22.94
2023-05-21T01:21:02.619Z,22.94
2023-05-21T01:21:12.618Z,22.95
2023-05-21T01:21:22.621Z,22.94
2023-05-21T01:21:32.900Z,22.94
2023-05-21T01:21:42.936Z,22.93
2023-05-21T01:21:52.971Z,22.94
2023-05-21T01:22:02.968Z,22.93
2023-05-21T01:22:12.973Z,22.93
2023-05-21T01:22:22.981Z,22.93
2023-05-21T01:22:32.992Z,22.93
2023-05-21T01:22:43.005Z,22.93
2023-05-21T01:22:53.009Z,22.93
2023-05-21T01:23:03.008Z,22.93
2023-05-21T01:23:13.453Z,22.93
2023-05-21T01:23:23.454Z,22.93
2023-05-21T01:23:33.457Z,22.93
2023-05-21T01:23:43.455Z,22.92
2023-05-21T01:23:53.465Z,22.93
2023-05-21T01:24:03.500Z,22.92
2023-05-21T01:24:13.518Z,22.92
2023-05-21T01:24:23.541Z,22.92
2023-05-21T01:24:33.534Z,22.92
2023-05-21T01:24:43.555Z,22.92
2023-05-21T01:24:53.560Z,22.92
2023-05-21T01:25:03.575Z,22.91
2023-05-21T01:25:13.578Z,22.92
2023-05-21T01:25:23.588Z,22.91
2023-05-21T01:25:33.814Z,22.91
2023-05-21T01:25:43.626Z,22.91
2023-05-21T01:25:53.624Z,22.92
2023-05-21T01:26:03.629Z,22.91
2023-05-21T01:26:13.754Z,22.91
2023-05-21T01:26:23.756Z,22.91
2023-05-21T01:26:33.782Z,22.91
2023-05-21T01:26:43.799Z,22.91
2023-05-21T01:26:53.789Z,22.91
2023-05-21T01:27:03.792Z,22.91
2023-05-21T01:27:14.067Z,22.90
2023-05-21T01:27:24.070Z,22.91
2023-05-21T01:27:34.086Z,22.90
2023-05-21T01:27:44.080Z,22.90
2023-05-21T01:27:54.204Z,22.89
2023-05-21T01:28:04.201Z,22.90
2023-05-21T01:28:14.332Z,22.90
2023-05-21T01:28:24.330Z,22.90
2023-05-21T01:28:34.480Z,22.90
2023-05-21T01:28:44.502Z,22.89
2023-05-21T01:28:54.633Z,22.89
2023-05-21T01:29:04.642Z,22.90
2023-05-21T01:29:14.699Z,22.90
2023-05-21T01:29:24.982Z,22.89
2023-05-21T01:29:34.978Z,22.89
2023-05-21T01:29:45.052Z,22.89
2023-05-21T01:29:55.080Z,22.88
2023-05-21T01:30:05.084Z,22.89
2023-05-21T01:30:15.073Z,22.89
2023-05-21T01:30:25.088Z,22.89
2023-05-21T01:30:35.102Z,22.89
2023-05-21T01:30:45.109Z,22.88
2023-05-21T01:30:55.197Z,22.88
2023-05-21T01:31:05.195Z,22.88
2023-05-21T01:31:15.269Z,22.88
2023-05-21T01:31:25.282Z,22.88
2023-05-21T01:31:35.288Z,22.88
2023-05-21T01:31:45.307Z,22.89
2023-05-21T01:31:55.317Z,22.87
2023-05-21T01:32:05.323Z,22.88
2023-05-21T01:32:15.392Z,22.87
2023-05-21T01:32:25.433Z,22.88
2023-05-21T01:32:35.541Z,22.88
2023-05-21T01:32:45.566Z,22.87
2023-05-21T01:32:55.566Z,22.88
2023-05-21T01:33:05.765Z,22.87
2023-05-21T01:33:15.668Z,22.86
2023-05-21T01:33:25.676Z,22.87
2023-05-21T01:33:35.748Z,22.87
2023-05-21T01:33:45.752Z,22.86
2023-05-21T01:33:55.856Z,22.86
2023-05-21T01:34:06.004Z,22.85
2023-05-21T01:34:16.016Z,22.85
2023-05-21T01:34:26.014Z,22.86
2023-05-21T01:34:36.397Z,22.86
2023-05-21T01:34:46.417Z,22.86
2023-05-21T01:34:56.422Z,22.86
2023-05-21T01:35:06.420Z,22.86
2023-05-21T01:35:16.549Z,22.85
2023-05-21T01:35:26.550Z,22.85
2023-05-21T01:35:36.791Z,22.85
2023-05-21T01:35:46.639Z,22.86
2023-05-21T01:35:56.645Z,22.85
2023-05-21T01:36:06.672Z,22.86
2023-05-21T01:36:16.675Z,22.85
2023-05-21T01:36:26.700Z,22.85
2023-05-21T01:36:36.719Z,22.85
2023-05-21T01:36:46.718Z,22.84
2023-05-21T01:36:56.733Z,22.85
2023-05-21T01:37:06.732Z,22.84
2023-05-21T01:37:16.731Z,22.85
2023-05-21T01:37:26.744Z,22.85
2023-05-21T01:37:36.749Z,22.84
2023-05-21T01:37:46.753Z,22.84
2023-05-21T01:37:56.768Z,22.84
2023-05-21T01:38:06.774Z,22.84
2023-05-21T01:38:16.907Z,22.84
2023-05-21T01:38:26.898Z,22.84
2023-05-21T01:38:37.174Z,22.84
2023-05-21T01:38:47.176Z,22.85
2023-05-21T01:38:57.186Z,22.84
2023-05-21T01:39:07.202Z,22.84
2023-05-21T01:39:17.213Z,22.84
2023-05-21T01:39:27.219Z,22.84
2023-05-21T01:39:37.235Z,22.84
2023-05-21T01:39:47.245Z,22.84
2023-05-21T01:39:57.262Z,22.84
2023-05-21T01:40:07.268Z,22.84
2023-05-21T01:40:17.265Z,22.84
2023-05-21T01:40:27.287Z,22.84
2023-05-21T01:40:37.324Z,22.83
2023-05-21T01:40:47.308Z,22.84
2023-05-21T01:40:57.331Z,22.83
2023-05-21T01:41:07.319Z,22.83
2023-05-21T01:41:17.330Z,22.83
2023-05-21T01:41:27.333Z,22.83
2023-05-21T01:41:37.347Z,22.83
2023-05-21T01:41:47.360Z,22.83
2023-05-21T01:41:57.371Z,22.83
2023-05-21T01:42:07.383Z,22.83
2023-05-21T01:42:17.387Z,22.83
2023-05-21T01:42:27.400Z,22.83
2023-05-21T01:42:37.405Z,22.82
2023-05-21T01:42:47.425Z,22.83
2023-05-21T01:42:57.424Z,22.82
2023-05-21T01:43:07.446Z,22.83
2023-05-21T01:43:17.458Z,22.83
2023-05-21T01:43:27.453Z,22.82
2023-05-21T01:43:37.462Z,22.82
2023-05-21T01:43:47.490Z,22.83
2023-05-21T01:43:57.490Z,22.82
2023-05-21T01:44:07.491Z,22.82
2023-05-21T01:44:17.510Z,22.82
2023-05-21T01:44:27.521Z,22.82
2023-05-21T01:44:37.527Z,22.82
2023-05-21T01:44:47.531Z,22.82
2023-05-21T01:44:57.564Z,22.81
2023-05-21T01:45:07.562Z,22.82
2023-05-21T01:45:17.569Z,22.82
2023-05-21T01:45:27.573Z,22.81
2023-05-21T01:45:37.713Z,22.82
2023-05-21T01:45:47.651Z,22.81
2023-05-21T01:45:57.688Z,22.81
2023-05-21T01:46:07.702Z,22.81
2023-05-21T01:46:17.828Z,22.81
2023-05-21T01:46:27.811Z,22.80
2023-05-21T01:46:37.895Z,22.81
2023-05-21T01:46:47.977Z,22.81
2023-05-21T01:46:58.002Z,22.81
2023-05-21T01:47:08.007Z,22.81
2023-05-21T01:47:18.261Z,22.81
2023-05-21T01:47:28.398Z,22.81
2023-05-21T01:47:38.504Z,22.81
2023-05-21T01:47:48.705Z,22.81
2023-05-21T01:47:58.733Z,22.80
2023-05-21T01:48:08.773Z,22.81
2023-05-21T01:48:18.780Z,22.81
2023-05-21T01:48:28.788Z,22.80
2023-05-21T01:48:38.796Z,22.80
2023-05-21T01:48:48.802Z,22.80
2023-05-21T01:48:58.823Z,22.80
2023-05-21T01:49:08.941Z,22.80
2023-05-21T01:49:18.959Z,22.80
2023-05-21T01:49:29.219Z,22.80
2023-05-21T01:49:39.222Z,22.80
2023-05-21T01:49:49.233Z,22.80
2023-05-21T01:49:59.241Z,22.79
2023-05-21T01:50:09.276Z,22.80
2023-05-21T01:50:19.284Z,22.80
2023-05-21T01:50:29.290Z,22.80
2023-05-21T01:50:39.289Z,22.80
2023-05-21T01:50:49.291Z,22.79
2023-05-21T01:50:59.314Z,22.80
2023-05-21T01:51:09.349Z,22.80
2023-05-21T01:51:19.438Z,22.79
2023-05-21T01:51:29.432Z,22.79
2023-05-21T01:51:39.443Z,22.79
2023-05-21T01:51:49.447Z,22.79
2023-05-21T01:51:59.456Z,22.78
2023-05-21T01:52:09.462Z,22.79
2023-05-21T01:52:19.470Z,22.78
2023-05-21T01:52:29.594Z,22.79
2023-05-21T01:52:39.603Z,22.79
2023-05-21T01:52:49.611Z,22.79
2023-05-21T01:52:59.618Z,22.79
2023-05-21T01:53:09.619Z,22.79
2023-05-21T01:53:19.651Z,22.79
2023-05-21T01:53:29.909Z,22.79
2023-05-21T01:53:39.917Z,22.79
2023-05-21T01:53:49.927Z,22.79
2023-05-21T01:53:59.934Z,22.79
2023-05-21T01:54:09.948Z,22.79
2023-05-21T01:54:19.957Z,22.79
2023-05-21T01:54:30.079Z,22.79
2023-05-21T01:54:40.084Z,22.79
2023-05-21T01:54:50.087Z,22.79
2023-05-21T01:55:00.098Z,22.79
2023-05-21T01:55:10.357Z,22.79
2023-05-21T01:55:20.365Z,22.78
2023-05-21T01:55:30.362Z,22.79
2023-05-21T01:55:40.367Z,22.78
2023-05-21T01:55:50.410Z,22.78
2023-05-21T01:56:00.413Z,22.78
2023-05-21T01:56:10.411Z,22.78
2023-05-21T01:56:20.435Z,22.78
2023-05-21T01:56:30.558Z,22.78
2023-05-21T01:56:40.590Z,22.78
2023-05-21T01:56:50.849Z,22.78
2023-05-21T01:57:00.868Z,22.78
2023-05-21T01:57:10.860Z,22.78
2023-05-21T01:57:20.874Z,22.78
2023-05-21T01:57:30.927Z,22.78
2023-05-21T01:57:40.923Z,22.78
2023-05-21T01:57:50.940Z,22.77
2023-05-21T01:58:02.505Z,22.77
2023-05-21T01:58:11.053Z,22.76
2023-05-21T01:58:21.082Z,22.77
2023-05-21T01:58:31.075Z,22.77
2023-05-21T01:58:41.087Z,22.77
2023-05-21T01:58:51.218Z,22.77
2023-05-21T01:59:01.216Z,22.77
2023-05-21T01:59:11.228Z,22.77
2023-05-21T01:59:21.220Z,22.77
2023-05-21T01:59:31.239Z,22.77
2023-05-21T01:59:41.498Z,22.78
2023-05-21T01:59:51.620Z,22.78
2023-05-21T02:00:01.664Z,22.77
2023-05-21T02:00:11.906Z,22.78
2023-05-21T02:00:21.910Z,22.77
2023-05-21T02:00:32.023Z,22.77
2023-05-21T02:00:42.298Z,22.78
2023-05-21T02:00:52.321Z,22.77
2023-05-21T02:01:02.321Z,22.76
2023-05-21T02:01:12.737Z,22.77
2023-05-21T02:01:22.781Z,22.77
2023-05-21T02:01:32.799Z,22.77
2023-05-21T02:01:42.869Z,22.77
2023-05-21T02:01:52.912Z,22.77
2023-05-21T02:02:02.933Z,22.77
2023-05-21T02:02:13.003Z,22.76
2023-05-21T02:02:23.059Z,22.77
2023-05-21T02:02:33.286Z,22.77
2023-05-21T02:02:43.252Z,22.77
2023-05-21T02:02:53.620Z,22.77
2023-05-21T02:03:03.665Z,22.77
2023-05-21T02:03:13.711Z,22.76
2023-05-21T02:03:23.734Z,22.77
2023-05-21T02:03:33.948Z,22.76
2023-05-21T02:03:43.837Z,22.76
2023-05-21T02:03:53.978Z,22.76
2023-05-21T02:04:04.104Z,22.76
2023-05-21T02:04:14.012Z,22.76
2023-05-21T02:04:24.019Z,22.76
2023-05-21T02:04:34.400Z,22.76
2023-05-21T02:04:44.413Z,22.76
2023-05-21T02:04:54.425Z,22.75
2023-05-21T02:05:04.427Z,22.75
2023-05-21T02:05:14.449Z,22.76
2023-05-21T02:05:24.451Z,22.76
2023-05-21T02:05:34.642Z,22.77
2023-05-21T02:05:44.503Z,22.76
2023-05-21T02:05:54.643Z,22.76
2023-05-21T02:06:04.631Z,22.75
2023-05-21T02:06:14.896Z,22.76
2023-05-21T02:06:24.900Z,22.76
2023-05-21T02:06:35.024Z,22.76
2023-05-21T02:06:45.286Z,22.76
2023-05-21T02:06:55.404Z,22.76
2023-05-21T02:07:05.403Z,22.76
2023-05-21T02:07:15.668Z,22.76
2023-05-21T02:07:25.670Z,22.76
2023-05-21T02:07:35.675Z,22.76
2023-05-21T02:07:45.682Z,22.76
2023-05-21T02:07:55.708Z,22.76
2023-05-21T02:08:05.726Z,22.76
2023-05-21T02:08:15.708Z,22.76
2023-05-21T02:08:25.744Z,22.75
2023-05-21T02:08:35.732Z,22.76
2023-05-21T02:08:45.769Z,22.76
2023-05-21T02:08:55.803Z,22.76
2023-05-21T02:09:05.795Z,22.75
2023-05-21T02:09:15.800Z,22.75
2023-05-21T02:09:25.815Z,22.75
2023-05-21T02:09:35.828Z,22.75